SBFZ/FOR METAR and TAF weather

Enter ICAO airport designator
Station Type Date Time Source
SBFZ METAR 2019/09/20 21:00 UTC NOAA

SBFZ 202100Z 08010KT CAVOK 27/19 Q1012


Station Type Date Time Source
SBFZ Decoded METAR 2019/09/20 21:00 UTC NOAA

Fortaleza / pinto Martins , Brazil (SBFZ) 03-47S 038-32W 25M
Sep 20, 2019 - 05:00 PM EDT / 2019.09.20 2100 UTC
Wind: from the E (080 degrees) at 12 MPH (10 KT):0
Visibility: greater than 7 mile(s):0
Temperature: 80 F (27 C)
Dew Point: 66 F (19 C)
Relative Humidity: 61%
Pressure (altimeter): 29.88 in. Hg (1012 hPa)
ob: SBFZ 202100Z 08010KT CAVOK 27/19 Q1012
cycle: 21

Station Type Date Time Source
SBFZ TAF 2019/09/20 18:46 UTC NOAA

TAF SBFZ 201600Z 2018/2118 08014KT CAVOK TN26/2107Z TX31/2116Z
BECMG 2100/2102 9999 SCT020
RMK PEU

Example: see airport list